createdAt,value
2023-07-02T00:00:39.752Z,20.70
2023-07-02T00:05:41.547Z,20.80
2023-07-02T00:10:44.560Z,20.70
2023-07-02T00:15:46.481Z,20.70
2023-07-02T00:20:48.527Z,20.80
2023-07-02T00:25:50.485Z,20.80
2023-07-02T00:30:52.423Z,20.70
2023-07-02T00:35:54.330Z,20.80
2023-07-02T00:40:56.294Z,20.70
2023-07-02T00:45:58.940Z,20.80
2023-07-02T00:51:01.589Z,21.00
2023-07-02T00:56:03.471Z,20.70
2023-07-02T01:01:05.530Z,20.70
2023-07-02T01:06:07.437Z,20.90
2023-07-02T01:11:09.393Z,20.40
2023-07-02T01:16:11.764Z,20.50
2023-07-02T01:21:14.171Z,20.40
2023-07-02T01:26:16.872Z,20.50
2023-07-02T01:31:18.816Z,20.30
2023-07-02T01:36:21.103Z,20.20
2023-07-02T01:41:22.908Z,20.30
2023-07-02T01:46:24.728Z,20.00
2023-07-02T01:51:26.574Z,19.80
2023-07-02T01:56:29.250Z,19.60
2023-07-02T02:01:31.226Z,19.80
2023-07-02T02:06:33.101Z,19.60
2023-07-02T02:11:39.323Z,20.00
2023-07-02T02:16:41.225Z,20.40
2023-07-02T02:21:44.080Z,19.70
2023-07-02T02:26:45.905Z,19.70
2023-07-02T02:31:47.768Z,19.60
2023-07-02T02:36:50.271Z,20.10
2023-07-02T02:41:52.098Z,20.20
2023-07-02T02:46:56.877Z,20.10
2023-07-02T02:51:59.008Z,19.70
2023-07-02T02:57:00.829Z,19.70
2023-07-02T03:02:02.979Z,19.50
2023-07-02T03:07:05.073Z,19.60
2023-07-02T03:12:07.564Z,19.20
2023-07-02T03:17:09.783Z,19.60
2023-07-02T03:22:11.640Z,19.20
2023-07-02T03:27:13.537Z,19.00
2023-07-02T03:32:15.304Z,19.00
2023-07-02T03:37:17.141Z,18.80
2023-07-02T03:42:18.988Z,19.00
2023-07-02T03:47:20.977Z,19.30
2023-07-02T03:52:22.772Z,19.20
2023-07-02T03:57:24.580Z,20.30
2023-07-02T04:02:26.446Z,20.80
2023-07-02T04:07:28.242Z,21.10
2023-07-02T04:12:31.124Z,21.10
2023-07-02T04:17:32.984Z,21.30
2023-07-02T04:22:34.872Z,21.40
2023-07-02T04:27:50.786Z,21.90
2023-07-02T04:32:53.814Z,22.30
2023-07-02T04:37:56.009Z,22.80
2023-07-02T04:43:00.785Z,23.30
2023-07-02T04:48:03.439Z,23.60
2023-07-02T04:53:05.288Z,23.90
2023-07-02T04:58:07.186Z,24.20
2023-07-02T05:03:09.198Z,24.80
2023-07-02T05:08:11.543Z,25.20
2023-07-02T05:13:13.636Z,25.30
2023-07-02T05:18:15.416Z,25.00
2023-07-02T05:23:17.220Z,25.30
2023-07-02T05:28:19.057Z,25.50
2023-07-02T05:33:23.064Z,25.60
2023-07-02T05:38:25.533Z,26.40
2023-07-02T05:43:27.289Z,25.80
2023-07-02T05:48:29.337Z,26.10
2023-07-02T05:53:31.121Z,26.70
2023-07-02T05:58:43.375Z,27.00
2023-07-02T06:03:51.674Z,27.20
2023-07-02T06:08:53.634Z,25.50
2023-07-02T06:13:56.324Z,24.00
2023-07-02T06:18:58.158Z,24.00
2023-07-02T06:24:03.103Z,24.50
2023-07-02T06:29:05.194Z,24.80
2023-07-02T06:34:07.441Z,24.10
2023-07-02T06:39:10.362Z,24.00
2023-07-02T06:44:12.763Z,23.90
2023-07-02T06:49:14.623Z,23.70
2023-07-02T06:54:16.471Z,23.90
2023-07-02T06:59:22.310Z,23.50
2023-07-02T07:04:24.321Z,23.70
2023-07-02T07:09:26.869Z,24.20
2023-07-02T07:14:28.661Z,25.00
2023-07-02T07:19:30.484Z,25.80
2023-07-02T07:24:32.313Z,27.80
2023-07-02T07:29:34.445Z,28.70
2023-07-02T07:34:36.439Z,28.30
2023-07-02T07:39:38.257Z,28.10
2023-07-02T07:44:40.005Z,27.60
2023-07-02T07:49:41.790Z,28.30
2023-07-02T07:54:43.621Z,28.60
2023-07-02T07:59:45.375Z,29.90
2023-07-02T08:04:47.216Z,29.90
2023-07-02T08:09:49.725Z,29.90
2023-07-02T08:14:51.508Z,29.20
2023-07-02T08:19:53.359Z,28.70
2023-07-02T08:24:55.807Z,29.60
2023-07-02T08:29:57.610Z,30.00
2023-07-02T08:34:59.385Z,30.30
2023-07-02T08:40:01.139Z,29.20
2023-07-02T08:45:03.742Z,28.10
2023-07-02T08:50:06.300Z,27.90
2023-07-02T08:55:08.677Z,28.80
2023-07-02T09:00:11.947Z,28.60
2023-07-02T09:05:14.344Z,29.20
2023-07-02T09:10:32.338Z,30.30
2023-07-02T09:15:38.691Z,30.30
2023-07-02T09:20:40.473Z,30.90
2023-07-02T09:25:42.332Z,30.90
2023-07-02T09:30:57.841Z,30.40
2023-07-02T09:35:59.868Z,29.50
2023-07-02T09:41:01.788Z,29.90
2023-07-02T09:46:04.805Z,29.40
2023-07-02T09:51:06.693Z,29.10
2023-07-02T09:56:10.057Z,29.50
2023-07-02T10:01:12.043Z,28.70
2023-07-02T10:06:13.880Z,28.40
2023-07-02T10:11:15.765Z,28.00
2023-07-02T10:16:17.739Z,28.90
2023-07-02T10:21:19.555Z,29.70
2023-07-02T10:26:21.402Z,29.60
2023-07-02T10:31:23.324Z,29.70
2023-07-02T10:36:26.389Z,29.70
2023-07-02T10:41:31.395Z,29.50
2023-07-02T10:46:33.274Z,29.60
2023-07-02T10:51:35.194Z,31.00
2023-07-02T10:56:36.999Z,30.90
2023-07-02T11:01:38.803Z,29.70
2023-07-02T11:06:40.681Z,29.40
2023-07-02T11:11:56.642Z,29.90
2023-07-02T11:17:06.885Z,29.60
2023-07-02T11:22:08.854Z,28.60
2023-07-02T11:27:21.477Z,28.70
2023-07-02T11:32:23.269Z,28.80
2023-07-02T11:37:25.729Z,28.60
2023-07-02T11:42:30.605Z,29.50
2023-07-02T11:47:32.450Z,30.30
2023-07-02T11:52:34.257Z,30.40
2023-07-02T11:57:36.024Z,29.90
2023-07-02T12:02:37.815Z,29.40
2023-07-02T12:07:39.802Z,30.00
2023-07-02T12:12:41.671Z,30.10
2023-07-02T12:17:43.521Z,30.60
2023-07-02T12:22:45.716Z,29.60
2023-07-02T12:27:47.525Z,29.30
2023-07-02T12:32:49.381Z,30.60
2023-07-02T12:37:53.072Z,31.40
2023-07-02T12:42:54.921Z,31.20
2023-07-02T12:47:56.721Z,30.70
2023-07-02T12:52:58.604Z,30.10
2023-07-02T12:58:00.404Z,30.30
2023-07-02T13:03:05.380Z,30.80
2023-07-02T13:08:08.030Z,30.20
2023-07-02T13:13:22.386Z,29.40
2023-07-02T13:18:25.553Z,29.10
2023-07-02T13:23:28.485Z,29.10
2023-07-02T13:28:30.309Z,29.40
2023-07-02T13:33:32.164Z,30.10
2023-07-02T13:38:34.207Z,30.10
2023-07-02T13:43:36.689Z,29.80
2023-07-02T13:48:38.561Z,29.80
2023-07-02T13:53:40.345Z,30.00
2023-07-02T13:58:58.170Z,30.00
2023-07-02T14:04:00.263Z,30.30
2023-07-02T14:09:02.268Z,31.10
2023-07-02T14:14:04.227Z,31.20
2023-07-02T14:19:06.338Z,30.10
2023-07-02T14:24:08.631Z,29.90
2023-07-02T14:29:10.910Z,30.70
2023-07-02T14:34:12.835Z,30.30
2023-07-02T14:39:14.693Z,29.40
2023-07-02T14:44:16.630Z,30.30
2023-07-02T14:49:18.641Z,30.90
2023-07-02T14:54:20.605Z,30.40
2023-07-02T14:59:22.458Z,29.60
2023-07-02T15:04:24.449Z,29.70
2023-07-02T15:09:26.376Z,28.80
2023-07-02T15:14:28.193Z,28.80
2023-07-02T15:19:29.963Z,29.00
2023-07-02T15:24:32.021Z,29.50
2023-07-02T15:29:35.355Z,29.60
2023-07-02T15:34:37.342Z,29.20
2023-07-02T15:39:39.187Z,29.60
2023-07-02T15:44:40.976Z,29.00
2023-07-02T15:49:42.927Z,29.10
2023-07-02T15:54:44.803Z,29.60
2023-07-02T15:59:46.669Z,29.30
2023-07-02T16:04:48.748Z,29.00
2023-07-02T16:09:50.662Z,29.20
2023-07-02T16:14:52.624Z,29.00
2023-07-02T16:19:54.590Z,28.50
2023-07-02T16:24:56.365Z,28.40
2023-07-02T16:29:58.197Z,28.80
2023-07-02T16:35:00.024Z,28.70
2023-07-02T16:40:02.951Z,28.20
2023-07-02T16:45:07.144Z,28.40
2023-07-02T16:50:09.473Z,28.40
2023-07-02T16:55:11.745Z,27.70
2023-07-02T17:00:14.319Z,27.90
2023-07-02T17:05:16.616Z,27.60
2023-07-02T17:10:18.527Z,28.00
2023-07-02T17:15:20.603Z,27.60
2023-07-02T17:20:22.443Z,27.40
2023-07-02T17:25:24.273Z,27.40
2023-07-02T17:30:26.591Z,27.40
2023-07-02T17:35:28.733Z,27.40
2023-07-02T17:40:33.450Z,27.10
2023-07-02T17:45:35.561Z,26.80
2023-07-02T17:50:37.377Z,26.70
2023-07-02T17:55:39.202Z,26.60
2023-07-02T18:00:41.006Z,26.30
2023-07-02T18:05:43.077Z,26.50
2023-07-02T18:10:50.085Z,26.30
2023-07-02T18:15:52.838Z,26.50
2023-07-02T18:20:55.036Z,26.20
2023-07-02T18:25:59.176Z,25.90
2023-07-02T18:31:01.581Z,25.60
2023-07-02T18:36:03.936Z,25.70
2023-07-02T18:41:08.718Z,25.80
2023-07-02T18:46:10.781Z,25.60
2023-07-02T18:51:13.098Z,25.40
2023-07-02T18:56:14.972Z,25.30
2023-07-02T19:01:18.173Z,25.30
2023-07-02T19:06:20.028Z,24.90
2023-07-02T19:11:21.915Z,24.70
2023-07-02T19:16:23.784Z,24.40
2023-07-02T19:21:25.578Z,24.40
2023-07-02T19:26:27.580Z,24.10
2023-07-02T19:31:29.387Z,24.00
2023-07-02T19:36:31.201Z,23.90
2023-07-02T19:41:33.023Z,23.90
2023-07-02T19:46:35.099Z,23.60
2023-07-02T19:51:37.110Z,23.50
2023-07-02T19:56:38.907Z,23.40
2023-07-02T20:01:41.009Z,23.10
2023-07-02T20:06:43.309Z,23.00
2023-07-02T20:11:45.339Z,22.70
2023-07-02T20:16:51.978Z,22.60
2023-07-02T20:21:56.188Z,22.40
2023-07-02T20:26:58.868Z,22.10
2023-07-02T20:32:00.634Z,22.00
2023-07-02T20:37:02.437Z,21.90
2023-07-02T20:42:06.717Z,21.80
2023-07-02T20:47:09.653Z,21.80
2023-07-02T20:52:11.462Z,21.70
2023-07-02T20:57:15.435Z,21.50
2023-07-02T21:02:17.574Z,21.40
2023-07-02T21:07:19.495Z,21.40
2023-07-02T21:12:21.284Z,21.40
2023-07-02T21:17:23.165Z,21.80
2023-07-02T21:22:25.031Z,21.80
2023-07-02T21:27:26.902Z,21.70
2023-07-02T21:32:28.805Z,21.50
2023-07-02T21:37:30.600Z,21.40
2023-07-02T21:42:32.367Z,21.30
2023-07-02T21:47:34.169Z,20.90
2023-07-02T21:52:36.074Z,21.00
2023-07-02T21:57:38.052Z,20.90
2023-07-02T22:02:39.923Z,20.70
2023-07-02T22:07:41.755Z,21.20
2023-07-02T22:12:46.292Z,20.70
2023-07-02T22:17:48.254Z,20.80
2023-07-02T22:22:50.059Z,20.40
2023-07-02T22:27:52.060Z,20.20
2023-07-02T22:32:53.895Z,20.20
2023-07-02T22:37:57.126Z,20.20
2023-07-02T22:42:58.886Z,20.10
2023-07-02T22:48:00.740Z,19.90
2023-07-02T22:53:02.558Z,20.00
2023-07-02T22:58:04.479Z,20.00
2023-07-02T23:03:06.744Z,19.80
2023-07-02T23:08:08.956Z,19.70
2023-07-02T23:13:10.957Z,19.60
2023-07-02T23:18:15.071Z,19.70
2023-07-02T23:23:17.056Z,20.00
2023-07-02T23:28:18.945Z,19.90
2023-07-02T23:33:22.439Z,19.80
2023-07-02T23:38:24.303Z,19.70
2023-07-02T23:43:26.072Z,19.70
2023-07-02T23:48:27.887Z,19.70
2023-07-02T23:53:29.718Z,19.30
2023-07-02T23:58:31.582Z,19.20
